< < Back
Terminal Aerodrome Forecast


Current Version              Previous Versions:   1  2  3  4  5  6  7  8  9  

Terminal Aerodrome Forecast

574
FTUS44 KMRX 170529
TAFCHA
TAF
KCHA 170529Z 1706/1806 36005KT P6SM SCT030
     FM170900 01002KT 4SM BR SCT002 BKN015
     FM171300 36003KT P6SM SCT015
     FM171400 34006KT P6SM SCT035
     FM180000 00000KT P6SM SCT120=



Latest METAR

437
SAUS80 KWBC 171500 RRA
MTRCHA
METAR KCHA 171453Z 03007KT 10SM BKN028 21/14 A2999 RMK AO2 SLP150
T02060144 58006


USA.gov is the U.S. government's official web portal to all federal, state and local government web resources and services.